createdAt,value
2022-10-12T00:02:14.212Z,32
2022-10-12T00:12:17.972Z,34
2022-10-12T00:22:24.619Z,32
2022-10-12T00:32:28.800Z,33
2022-10-12T00:42:34.435Z,35
2022-10-12T00:52:42.489Z,33
2022-10-12T01:02:46.288Z,31
2022-10-12T01:12:53.858Z,33
2022-10-12T01:22:59.578Z,30
2022-10-12T01:33:04.494Z,32
2022-10-12T01:43:12.288Z,37
2022-10-12T01:53:18.347Z,37
2022-10-12T02:03:23.837Z,38
2022-10-12T02:13:29.927Z,40
2022-10-12T02:23:34.611Z,40
2022-10-12T02:33:39.315Z,41
2022-10-12T02:43:57.744Z,42
2022-10-12T02:53:49.941Z,42
2022-10-12T03:03:56.578Z,40
2022-10-12T03:14:01.085Z,35
2022-10-12T03:24:07.989Z,40
2022-10-12T03:34:13.140Z,39
2022-10-12T03:44:18.128Z,39
2022-10-12T03:54:31.428Z,38
2022-10-12T04:04:29.765Z,36
2022-10-12T04:14:37.367Z,38
2022-10-12T04:24:43.022Z,43
2022-10-12T04:34:49.144Z,41
2022-10-12T04:45:00.582Z,35
2022-10-12T04:55:00.289Z,42
2022-10-12T05:05:06.596Z,43
2022-10-12T05:15:17.739Z,35
2022-10-12T05:25:21.263Z,39
2022-10-12T05:35:22.851Z,36
2022-10-12T05:45:29.215Z,36
2022-10-12T05:55:35.549Z,38
2022-10-12T06:05:41.435Z,36
2022-10-12T06:15:46.680Z,40
2022-10-12T06:25:54.725Z,34
2022-10-12T06:35:58.802Z,36
2022-10-12T06:46:05.453Z,38
2022-10-12T06:56:11.171Z,35
2022-10-12T07:06:18.348Z,37
2022-10-12T07:16:22.340Z,41
2022-10-12T07:26:28.036Z,36
2022-10-12T07:37:30.831Z,32
2022-10-12T07:47:24.047Z,34
2022-10-12T07:57:30.031Z,30
2022-10-12T08:07:35.195Z,32
2022-10-12T08:17:41.803Z,28
2022-10-12T08:27:48.894Z,28
2022-10-12T08:37:51.328Z,31
2022-10-12T08:47:57.695Z,32
2022-10-12T08:58:03.400Z,29
2022-10-12T09:08:08.539Z,29
2022-10-12T09:18:13.380Z,27
2022-10-12T09:28:21.886Z,27
2022-10-12T09:38:23.106Z,25
2022-10-12T09:48:27.406Z,25
2022-10-12T09:58:33.389Z,29
2022-10-12T10:08:39.737Z,24
2022-10-12T10:18:47.900Z,23
2022-10-12T10:28:53.513Z,22
2022-10-12T10:38:57.956Z,15
2022-10-12T10:49:04.030Z,22
2022-10-12T10:59:10.372Z,22
2022-10-12T11:09:16.773Z,17
2022-10-12T11:19:21.858Z,17
2022-10-12T11:29:28.901Z,17
2022-10-12T11:39:38.235Z,15
2022-10-12T11:50:21.106Z,15
2022-10-12T12:00:27.294Z,15
2022-10-12T12:10:38.295Z,13
2022-10-12T12:20:39.910Z,14
2022-10-12T12:30:45.905Z,17
2022-10-12T12:40:50.353Z,16
2022-10-12T12:50:55.045Z,17
2022-10-12T13:01:09.073Z,15
2022-10-12T13:11:08.403Z,37
2022-10-12T13:21:47.556Z,17
2022-10-12T13:31:52.573Z,15
2022-10-12T13:41:58.591Z,13
2022-10-12T13:52:05.546Z,16
2022-10-12T14:02:10.933Z,17
2022-10-12T14:12:23.073Z,16
2022-10-12T14:22:25.156Z,14
2022-10-12T14:32:29.739Z,17
2022-10-12T14:42:36.460Z,15
2022-10-12T14:52:43.130Z,13
2022-10-12T15:02:49.712Z,12
2022-10-12T15:12:55.532Z,13
2022-10-12T15:23:02.363Z,11
2022-10-12T15:33:10.109Z,12
2022-10-12T15:53:22.451Z,14
2022-10-12T16:03:28.987Z,32
2022-10-12T16:13:41.176Z,19
2022-10-12T16:23:41.937Z,13
2022-10-12T16:33:47.911Z,13
2022-10-12T16:43:53.920Z,25
2022-10-12T16:53:58.085Z,13
2022-10-12T17:04:03.171Z,23
2022-10-12T17:14:09.508Z,15
2022-10-12T17:24:15.328Z,14
2022-10-12T17:34:21.677Z,27
2022-10-12T17:44:27.798Z,18
2022-10-12T17:54:32.626Z,13
2022-10-12T18:04:38.783Z,15
2022-10-12T18:14:44.866Z,28
2022-10-12T18:24:58.399Z,23
2022-10-12T18:34:57.102Z,21
2022-10-12T18:45:03.044Z,20
2022-10-12T18:55:10.397Z,17
2022-10-12T19:05:17.676Z,16
2022-10-12T19:15:22.549Z,20
2022-10-12T19:25:28.657Z,18
2022-10-12T19:35:32.356Z,22
2022-10-12T19:45:36.690Z,23
2022-10-12T19:55:43.797Z,24
2022-10-12T20:05:50.296Z,30
2022-10-12T20:15:56.504Z,30
2022-10-12T20:26:02.611Z,32
2022-10-12T20:36:07.408Z,27
2022-10-12T20:46:13.536Z,24
2022-10-12T20:56:16.204Z,23
2022-10-12T21:06:20.617Z,29
2022-10-12T21:16:25.601Z,24
2022-10-12T21:26:33.305Z,22
2022-10-12T21:36:39.988Z,20
2022-10-12T21:46:45.934Z,21
2022-10-12T21:56:52.025Z,29
2022-10-12T22:07:01.179Z,35
2022-10-12T22:17:02.244Z,41
2022-10-12T22:27:08.413Z,22
2022-10-12T22:37:13.699Z,16
2022-10-12T22:47:19.991Z,14
2022-10-12T22:57:27.778Z,12
2022-10-12T23:07:34.766Z,18
2022-10-12T23:17:41.141Z,18
2022-10-12T23:27:45.441Z,20
2022-10-12T23:37:48.958Z,18
2022-10-12T23:47:54.661Z,14
2022-10-12T23:58:32.086Z,15
